sensor_id;sensor_type;location;lat;lon;timestamp;temperature;humidity
34279;DHT22;20538;51.528;9.942;2023-04-28T00:01:06;7.30;99.90
34279;DHT22;20538;51.528;9.942;2023-04-28T00:03:32;7.30;99.90
34279;DHT22;20538;51.528;9.942;2023-04-28T00:05:58;7.40;99.90
34279;DHT22;20538;51.528;9.942;2023-04-28T00:08:23;7.40;99.90
34279;DHT22;20538;51.528;9.942;2023-04-28T00:10:51;7.60;99.90
34279;DHT22;20538;51.528;9.942;2023-04-28T00:13:17;7.60;99.90
34279;DHT22;20538;51.528;9.942;2023-04-28T00:15:43;7.60;99.90
34279;DHT22;20538;51.528;9.942;2023-04-28T00:18:09;7.70;99.90
34279;DHT22;20538;51.528;9.942;2023-04-28T00:20:34;7.80;99.90
34279;DHT22;20538;51.528;9.942;2023-04-28T00:23:01;7.80;99.90
34279;DHT22;20538;51.528;9.942;2023-04-28T00:25:26;7.90;99.90
34279;DHT22;20538;51.528;9.942;2023-04-28T00:27:52;7.90;99.90
34279;DHT22;20538;51.528;9.942;2023-04-28T00:30:17;7.90;99.90
34279;DHT22;20538;51.528;9.942;2023-04-28T00:32:43;8.00;99.90
34279;DHT22;20538;51.528;9.942;2023-04-28T00:35:09;8.00;99.90
34279;DHT22;20538;51.528;9.942;2023-04-28T00:37:36;8.10;99.90
34279;DHT22;20538;51.528;9.942;2023-04-28T00:40:01;8.00;99.90
34279;DHT22;20538;51.528;9.942;2023-04-28T00:42:27;8.00;99.90
34279;DHT22;20538;51.528;9.942;2023-04-28T00:44:53;8.10;99.90
34279;DHT22;20538;51.528;9.942;2023-04-28T00:47:18;8.10;99.90
34279;DHT22;20538;51.528;9.942;2023-04-28T00:49:44;8.10;99.90
34279;DHT22;20538;51.528;9.942;2023-04-28T00:52:10;8.10;99.90
34279;DHT22;20538;51.528;9.942;2023-04-28T00:54:36;8.10;99.90
34279;DHT22;20538;51.528;9.942;2023-04-28T00:57:02;8.10;99.90
34279;DHT22;20538;51.528;9.942;2023-04-28T00:59:29;8.10;99.90
34279;DHT22;20538;51.528;9.942;2023-04-28T01:01:55;8.10;99.90
34279;DHT22;20538;51.528;9.942;2023-04-28T01:04:21;8.00;99.90
34279;DHT22;20538;51.528;9.942;2023-04-28T01:06:48;8.10;99.90
34279;DHT22;20538;51.528;9.942;2023-04-28T01:09:15;8.10;99.90
34279;DHT22;20538;51.528;9.942;2023-04-28T01:11:41;8.00;99.90
34279;DHT22;20538;51.528;9.942;2023-04-28T01:14:06;8.00;99.90
34279;DHT22;20538;51.528;9.942;2023-04-28T01:16:32;7.90;99.90
34279;DHT22;20538;51.528;9.942;2023-04-28T01:18:59;7.90;99.90
34279;DHT22;20538;51.528;9.942;2023-04-28T01:21:31;7.90;99.90
34279;DHT22;20538;51.528;9.942;2023-04-28T01:23:57;7.90;99.90
34279;DHT22;20538;51.528;9.942;2023-04-28T01:26:23;7.90;99.90
34279;DHT22;20538;51.528;9.942;2023-04-28T01:28:49;7.80;99.90
34279;DHT22;20538;51.528;9.942;2023-04-28T01:31:15;7.80;99.90
34279;DHT22;20538;51.528;9.942;2023-04-28T01:33:41;7.80;99.90
34279;DHT22;20538;51.528;9.942;2023-04-28T01:36:07;7.70;99.90
34279;DHT22;20538;51.528;9.942;2023-04-28T01:38:32;7.70;99.90
34279;DHT22;20538;51.528;9.942;2023-04-28T01:40:58;7.70;99.90
34279;DHT22;20538;51.528;9.942;2023-04-28T01:43:24;7.70;99.90
34279;DHT22;20538;51.528;9.942;2023-04-28T01:45:50;7.70;99.90
34279;DHT22;20538;51.528;9.942;2023-04-28T01:48:16;7.70;99.90
34279;DHT22;20538;51.528;9.942;2023-04-28T01:50:42;7.70;99.90
34279;DHT22;20538;51.528;9.942;2023-04-28T01:53:07;7.80;99.90
34279;DHT22;20538;51.528;9.942;2023-04-28T01:55:33;7.90;99.90
34279;DHT22;20538;51.528;9.942;2023-04-28T01:57:58;7.90;99.90
34279;DHT22;20538;51.528;9.942;2023-04-28T02:00:24;7.90;99.90
34279;DHT22;20538;51.528;9.942;2023-04-28T02:02:51;8.00;99.90
34279;DHT22;20538;51.528;9.942;2023-04-28T02:05:17;8.00;99.90
34279;DHT22;20538;51.528;9.942;2023-04-28T02:07:42;8.00;99.90
34279;DHT22;20538;51.528;9.942;2023-04-28T02:10:08;8.10;99.90
34279;DHT22;20538;51.528;9.942;2023-04-28T02:12:34;8.00;99.90
34279;DHT22;20538;51.528;9.942;2023-04-28T02:15:00;8.00;99.90
34279;DHT22;20538;51.528;9.942;2023-04-28T02:17:25;8.00;99.90
34279;DHT22;20538;51.528;9.942;2023-04-28T02:19:55;8.10;99.90
34279;DHT22;20538;51.528;9.942;2023-04-28T02:22:21;8.10;99.90
34279;DHT22;20538;51.528;9.942;2023-04-28T02:24:47;8.10;99.90
34279;DHT22;20538;51.528;9.942;2023-04-28T02:27:13;8.10;99.90
34279;DHT22;20538;51.528;9.942;2023-04-28T02:29:39;8.10;99.90
34279;DHT22;20538;51.528;9.942;2023-04-28T02:32:05;8.10;99.90
34279;DHT22;20538;51.528;9.942;2023-04-28T02:34:30;8.10;99.90
34279;DHT22;20538;51.528;9.942;2023-04-28T02:36:56;8.10;99.90
34279;DHT22;20538;51.528;9.942;2023-04-28T02:39:21;8.10;99.90
34279;DHT22;20538;51.528;9.942;2023-04-28T02:41:50;8.10;99.90
34279;DHT22;20538;51.528;9.942;2023-04-28T02:44:16;8.20;99.90
34279;DHT22;20538;51.528;9.942;2023-04-28T02:46:42;8.20;99.90
34279;DHT22;20538;51.528;9.942;2023-04-28T02:49:07;8.20;99.90
34279;DHT22;20538;51.528;9.942;2023-04-28T02:51:33;8.20;99.90
34279;DHT22;20538;51.528;9.942;2023-04-28T02:53:59;8.20;99.90
34279;DHT22;20538;51.528;9.942;2023-04-28T02:56:25;8.20;99.90
34279;DHT22;20538;51.528;9.942;2023-04-28T02:58:51;8.20;99.90
34279;DHT22;20538;51.528;9.942;2023-04-28T03:01:16;8.20;99.90
34279;DHT22;20538;51.528;9.942;2023-04-28T03:03:42;8.20;99.90
34279;DHT22;20538;51.528;9.942;2023-04-28T03:06:07;8.20;99.90
34279;DHT22;20538;51.528;9.942;2023-04-28T03:08:33;8.30;99.90
34279;DHT22;20538;51.528;9.942;2023-04-28T03:10:59;8.30;99.90
34279;DHT22;20538;51.528;9.942;2023-04-28T03:13:24;8.20;99.90
34279;DHT22;20538;51.528;9.942;2023-04-28T03:15:51;8.20;99.90
34279;DHT22;20538;51.528;9.942;2023-04-28T03:18:16;8.30;99.90
34279;DHT22;20538;51.528;9.942;2023-04-28T03:20:43;8.30;99.90
34279;DHT22;20538;51.528;9.942;2023-04-28T03:23:09;8.30;99.90
34279;DHT22;20538;51.528;9.942;2023-04-28T03:25:34;8.30;99.90
34279;DHT22;20538;51.528;9.942;2023-04-28T03:28:00;8.30;99.90
34279;DHT22;20538;51.528;9.942;2023-04-28T03:30:27;8.30;99.90
34279;DHT22;20538;51.528;9.942;2023-04-28T03:32:52;8.30;99.90
34279;DHT22;20538;51.528;9.942;2023-04-28T03:35:18;8.30;99.90
34279;DHT22;20538;51.528;9.942;2023-04-28T03:37:43;8.30;99.90
34279;DHT22;20538;51.528;9.942;2023-04-28T03:40:10;8.20;99.90
34279;DHT22;20538;51.528;9.942;2023-04-28T03:42:35;8.30;99.90
34279;DHT22;20538;51.528;9.942;2023-04-28T03:45:01;8.20;99.90
34279;DHT22;20538;51.528;9.942;2023-04-28T03:47:27;8.20;99.90
34279;DHT22;20538;51.528;9.942;2023-04-28T03:49:53;8.30;99.90
34279;DHT22;20538;51.528;9.942;2023-04-28T03:52:19;8.20;99.90
34279;DHT22;20538;51.528;9.942;2023-04-28T03:54:45;8.20;99.90
34279;DHT22;20538;51.528;9.942;2023-04-28T03:57:11;8.30;99.90
34279;DHT22;20538;51.528;9.942;2023-04-28T03:59:37;8.30;99.90
34279;DHT22;20538;51.528;9.942;2023-04-28T04:02:03;8.30;99.90
34279;DHT22;20538;51.528;9.942;2023-04-28T04:04:28;8.30;99.90
34279;DHT22;20538;51.528;9.942;2023-04-28T04:06:54;8.30;99.90
34279;DHT22;20538;51.528;9.942;2023-04-28T04:09:20;8.30;99.90
34279;DHT22;20538;51.528;9.942;2023-04-28T04:11:46;8.30;99.90
34279;DHT22;20538;51.528;9.942;2023-04-28T04:14:11;8.30;99.90
34279;DHT22;20538;51.528;9.942;2023-04-28T04:16:37;8.40;99.90
34279;DHT22;20538;51.528;9.942;2023-04-28T04:19:03;8.40;99.90
34279;DHT22;20538;51.528;9.942;2023-04-28T04:21:29;8.40;99.90
34279;DHT22;20538;51.528;9.942;2023-04-28T04:23:56;8.40;99.90
34279;DHT22;20538;51.528;9.942;2023-04-28T04:26:21;8.40;99.90
34279;DHT22;20538;51.528;9.942;2023-04-28T04:28:47;8.40;99.90
34279;DHT22;20538;51.528;9.942;2023-04-28T04:31:12;8.40;99.90
34279;DHT22;20538;51.528;9.942;2023-04-28T04:33:39;8.40;99.90
34279;DHT22;20538;51.528;9.942;2023-04-28T04:36:05;8.40;99.90
34279;DHT22;20538;51.528;9.942;2023-04-28T04:38:31;8.40;99.90
34279;DHT22;20538;51.528;9.942;2023-04-28T04:40:57;8.50;99.90
34279;DHT22;20538;51.528;9.942;2023-04-28T04:43:22;8.50;99.90
34279;DHT22;20538;51.528;9.942;2023-04-28T04:45:48;8.50;99.90
34279;DHT22;20538;51.528;9.942;2023-04-28T04:48:14;8.60;99.90
34279;DHT22;20538;51.528;9.942;2023-04-28T04:50:40;8.60;99.90
34279;DHT22;20538;51.528;9.942;2023-04-28T04:53:06;8.60;99.90
34279;DHT22;20538;51.528;9.942;2023-04-28T04:55:32;8.60;99.90
34279;DHT22;20538;51.528;9.942;2023-04-28T04:57:58;8.70;99.90
34279;DHT22;20538;51.528;9.942;2023-04-28T05:00:24;8.70;99.90
34279;DHT22;20538;51.528;9.942;2023-04-28T05:02:49;8.70;99.90
34279;DHT22;20538;51.528;9.942;2023-04-28T05:05:15;8.70;99.90
34279;DHT22;20538;51.528;9.942;2023-04-28T05:07:42;8.70;99.90
34279;DHT22;20538;51.528;9.942;2023-04-28T05:10:08;8.70;99.90
34279;DHT22;20538;51.528;9.942;2023-04-28T05:12:36;8.80;99.90
34279;DHT22;20538;51.528;9.942;2023-04-28T05:15:03;8.80;99.90
34279;DHT22;20538;51.528;9.942;2023-04-28T05:17:29;8.80;99.90
34279;DHT22;20538;51.528;9.942;2023-04-28T05:19:55;8.80;99.90
34279;DHT22;20538;51.528;9.942;2023-04-28T05:22:20;8.80;99.90
34279;DHT22;20538;51.528;9.942;2023-04-28T05:24:46;8.90;99.90
34279;DHT22;20538;51.528;9.942;2023-04-28T05:27:11;8.90;99.90
34279;DHT22;20538;51.528;9.942;2023-04-28T05:29:37;9.00;99.90
34279;DHT22;20538;51.528;9.942;2023-04-28T05:32:03;9.00;99.90
34279;DHT22;20538;51.528;9.942;2023-04-28T05:34:28;9.10;99.90
34279;DHT22;20538;51.528;9.942;2023-04-28T05:36:54;9.10;99.90
34279;DHT22;20538;51.528;9.942;2023-04-28T05:39:20;9.10;99.90
34279;DHT22;20538;51.528;9.942;2023-04-28T05:41:45;9.10;99.90
34279;DHT22;20538;51.528;9.942;2023-04-28T05:44:11;9.20;99.90
34279;DHT22;20538;51.528;9.942;2023-04-28T05:46:37;9.20;99.90
34279;DHT22;20538;51.528;9.942;2023-04-28T05:49:02;9.20;99.90
34279;DHT22;20538;51.528;9.942;2023-04-28T05:51:28;9.30;99.90
34279;DHT22;20538;51.528;9.942;2023-04-28T05:53:53;9.30;99.90
34279;DHT22;20538;51.528;9.942;2023-04-28T05:56:19;9.20;99.90
34279;DHT22;20538;51.528;9.942;2023-04-28T05:58:45;9.30;99.90
34279;DHT22;20538;51.528;9.942;2023-04-28T06:01:12;9.30;99.90
34279;DHT22;20538;51.528;9.942;2023-04-28T06:03:37;9.40;99.90
34279;DHT22;20538;51.528;9.942;2023-04-28T06:06:06;9.40;99.90
34279;DHT22;20538;51.528;9.942;2023-04-28T06:08:32;9.40;99.90
34279;DHT22;20538;51.528;9.942;2023-04-28T06:10:57;9.40;99.90
34279;DHT22;20538;51.528;9.942;2023-04-28T06:13:23;9.40;99.90
34279;DHT22;20538;51.528;9.942;2023-04-28T06:15:49;9.40;99.90
34279;DHT22;20538;51.528;9.942;2023-04-28T06:18:15;9.50;99.90
34279;DHT22;20538;51.528;9.942;2023-04-28T06:20:41;9.50;99.90
34279;DHT22;20538;51.528;9.942;2023-04-28T06:23:07;9.50;99.90
34279;DHT22;20538;51.528;9.942;2023-04-28T06:25:34;9.60;99.90
34279;DHT22;20538;51.528;9.942;2023-04-28T06:28:00;9.50;99.90
34279;DHT22;20538;51.528;9.942;2023-04-28T06:30:26;9.60;99.90
34279;DHT22;20538;51.528;9.942;2023-04-28T06:32:52;9.60;99.90
34279;DHT22;20538;51.528;9.942;2023-04-28T06:35:17;9.60;99.90
34279;DHT22;20538;51.528;9.942;2023-04-28T06:37:43;9.60;99.90
34279;DHT22;20538;51.528;9.942;2023-04-28T06:40:09;9.50;99.90
34279;DHT22;20538;51.528;9.942;2023-04-28T06:42:35;9.60;99.90
34279;DHT22;20538;51.528;9.942;2023-04-28T06:45:01;9.60;99.90
34279;DHT22;20538;51.528;9.942;2023-04-28T06:47:27;9.60;99.90
34279;DHT22;20538;51.528;9.942;2023-04-28T06:49:53;9.60;99.90
34279;DHT22;20538;51.528;9.942;2023-04-28T06:52:18;9.60;99.90
34279;DHT22;20538;51.528;9.942;2023-04-28T06:54:46;9.70;99.90
34279;DHT22;20538;51.528;9.942;2023-04-28T06:57:12;9.60;99.90
34279;DHT22;20538;51.528;9.942;2023-04-28T06:59:37;9.70;99.90
34279;DHT22;20538;51.528;9.942;2023-04-28T07:02:04;9.70;99.90
34279;DHT22;20538;51.528;9.942;2023-04-28T07:04:29;9.80;99.90
34279;DHT22;20538;51.528;9.942;2023-04-28T07:06:55;9.80;99.90
34279;DHT22;20538;51.528;9.942;2023-04-28T07:09:20;9.80;99.90
34279;DHT22;20538;51.528;9.942;2023-04-28T07:11:46;9.80;99.90
34279;DHT22;20538;51.528;9.942;2023-04-28T07:14:12;9.70;99.90
34279;DHT22;20538;51.528;9.942;2023-04-28T07:16:38;9.70;99.90
34279;DHT22;20538;51.528;9.942;2023-04-28T07:19:04;9.80;99.90
34279;DHT22;20538;51.528;9.942;2023-04-28T07:21:29;9.90;99.90
34279;DHT22;20538;51.528;9.942;2023-04-28T07:23:55;9.90;99.90
34279;DHT22;20538;51.528;9.942;2023-04-28T07:26:24;10.00;99.90
34279;DHT22;20538;51.528;9.942;2023-04-28T07:28:50;9.90;99.90
34279;DHT22;20538;51.528;9.942;2023-04-28T07:31:16;9.90;99.90
34279;DHT22;20538;51.528;9.942;2023-04-28T07:33:42;9.80;99.90
34279;DHT22;20538;51.528;9.942;2023-04-28T07:36:08;9.90;99.90
34279;DHT22;20538;51.528;9.942;2023-04-28T07:38:34;9.80;99.90
34279;DHT22;20538;51.528;9.942;2023-04-28T07:41:01;9.90;99.90
34279;DHT22;20538;51.528;9.942;2023-04-28T07:43:27;10.00;99.90
34279;DHT22;20538;51.528;9.942;2023-04-28T07:45:52;10.10;99.90
34279;DHT22;20538;51.528;9.942;2023-04-28T07:48:18;10.20;99.90
34279;DHT22;20538;51.528;9.942;2023-04-28T07:50:44;10.30;99.90
34279;DHT22;20538;51.528;9.942;2023-04-28T07:53:09;10.30;99.90
34279;DHT22;20538;51.528;9.942;2023-04-28T07:55:35;10.40;99.90
34279;DHT22;20538;51.528;9.942;2023-04-28T07:58:01;10.50;99.90
34279;DHT22;20538;51.528;9.942;2023-04-28T08:00:27;10.50;99.90
34279;DHT22;20538;51.528;9.942;2023-04-28T08:02:53;10.50;99.90
34279;DHT22;20538;51.528;9.942;2023-04-28T08:05:18;10.50;99.90
34279;DHT22;20538;51.528;9.942;2023-04-28T08:07:44;10.60;99.90
34279;DHT22;20538;51.528;9.942;2023-04-28T08:10:10;10.70;99.90
34279;DHT22;20538;51.528;9.942;2023-04-28T08:12:36;11.00;99.90
34279;DHT22;20538;51.528;9.942;2023-04-28T08:15:03;11.20;99.90
34279;DHT22;20538;51.528;9.942;2023-04-28T08:17:28;11.30;99.90
34279;DHT22;20538;51.528;9.942;2023-04-28T08:19:54;11.30;99.90
34279;DHT22;20538;51.528;9.942;2023-04-28T08:22:20;11.20;99.90
34279;DHT22;20538;51.528;9.942;2023-04-28T08:24:45;11.30;99.90
34279;DHT22;20538;51.528;9.942;2023-04-28T08:27:11;11.40;99.90
34279;DHT22;20538;51.528;9.942;2023-04-28T08:29:37;11.40;99.90
34279;DHT22;20538;51.528;9.942;2023-04-28T08:32:03;11.60;99.90
34279;DHT22;20538;51.528;9.942;2023-04-28T08:34:34;11.90;99.90
34279;DHT22;20538;51.528;9.942;2023-04-28T08:37:00;12.50;99.90
34279;DHT22;20538;51.528;9.942;2023-04-28T08:39:26;12.70;99.90
34279;DHT22;20538;51.528;9.942;2023-04-28T08:41:52;12.70;99.90
34279;DHT22;20538;51.528;9.942;2023-04-28T08:44:18;13.00;99.90
34279;DHT22;20538;51.528;9.942;2023-04-28T08:46:45;13.00;99.90
34279;DHT22;20538;51.528;9.942;2023-04-28T08:49:17;12.90;99.90
34279;DHT22;20538;51.528;9.942;2023-04-28T08:51:50;12.80;99.90
34279;DHT22;20538;51.528;9.942;2023-04-28T08:54:20;12.80;99.90
34279;DHT22;20538;51.528;9.942;2023-04-28T08:56:47;12.70;99.90
34279;DHT22;20538;51.528;9.942;2023-04-28T08:59:13;13.00;99.90
34279;DHT22;20538;51.528;9.942;2023-04-28T09:01:40;13.10;99.90
34279;DHT22;20538;51.528;9.942;2023-04-28T09:04:06;13.20;99.90
34279;DHT22;20538;51.528;9.942;2023-04-28T09:06:36;13.10;99.90
34279;DHT22;20538;51.528;9.942;2023-04-28T09:09:22;13.20;99.90
34279;DHT22;20538;51.528;9.942;2023-04-28T09:11:54;13.00;99.90
34279;DHT22;20538;51.528;9.942;2023-04-28T09:14:21;13.00;99.90
34279;DHT22;20538;51.528;9.942;2023-04-28T09:16:47;12.90;99.90
34279;DHT22;20538;51.528;9.942;2023-04-28T09:19:14;13.00;99.90
34279;DHT22;20538;51.528;9.942;2023-04-28T09:21:55;13.00;99.90
34279;DHT22;20538;51.528;9.942;2023-04-28T09:24:34;12.90;99.90
34279;DHT22;20538;51.528;9.942;2023-04-28T09:27:04;12.90;99.90
34279;DHT22;20538;51.528;9.942;2023-04-28T09:29:32;12.90;99.90
34279;DHT22;20538;51.528;9.942;2023-04-28T09:32:21;12.80;99.90
34279;DHT22;20538;51.528;9.942;2023-04-28T09:34:50;12.80;99.90
34279;DHT22;20538;51.528;9.942;2023-04-28T09:37:26;12.80;99.90
34279;DHT22;20538;51.528;9.942;2023-04-28T09:39:55;12.90;99.90
34279;DHT22;20538;51.528;9.942;2023-04-28T09:42:34;13.00;99.90
34279;DHT22;20538;51.528;9.942;2023-04-28T09:45:02;13.30;99.90
34279;DHT22;20538;51.528;9.942;2023-04-28T09:47:29;13.50;99.90
34279;DHT22;20538;51.528;9.942;2023-04-28T09:50:04;13.80;99.90
34279;DHT22;20538;51.528;9.942;2023-04-28T09:52:32;13.70;99.90
34279;DHT22;20538;51.528;9.942;2023-04-28T09:55:01;13.60;99.90
34279;DHT22;20538;51.528;9.942;2023-04-28T09:57:30;13.70;99.90
34279;DHT22;20538;51.528;9.942;2023-04-28T10:00:00;13.90;99.90
34279;DHT22;20538;51.528;9.942;2023-04-28T10:02:27;14.10;99.90
34279;DHT22;20538;51.528;9.942;2023-04-28T10:04:52;14.20;99.90
34279;DHT22;20538;51.528;9.942;2023-04-28T10:07:20;14.30;99.90
34279;DHT22;20538;51.528;9.942;2023-04-28T10:09:49;14.40;99.90
34279;DHT22;20538;51.528;9.942;2023-04-28T10:12:23;14.30;99.90
34279;DHT22;20538;51.528;9.942;2023-04-28T10:14:49;14.20;99.90
34279;DHT22;20538;51.528;9.942;2023-04-28T10:17:19;14.00;99.90
34279;DHT22;20538;51.528;9.942;2023-04-28T10:19:47;13.90;99.90
34279;DHT22;20538;51.528;9.942;2023-04-28T10:25:11;13.80;99.90
34279;DHT22;20538;51.528;9.942;2023-04-28T10:27:43;14.00;99.90
34279;DHT22;20538;51.528;9.942;2023-04-28T10:30:13;14.10;99.90
34279;DHT22;20538;51.528;9.942;2023-04-28T10:32:40;13.90;99.90
34279;DHT22;20538;51.528;9.942;2023-04-28T10:38:18;14.00;99.90
34279;DHT22;20538;51.528;9.942;2023-04-28T10:40:47;14.10;99.90
34279;DHT22;20538;51.528;9.942;2023-04-28T10:56:13;13.90;99.90
34279;DHT22;20538;51.528;9.942;2023-04-28T10:58:49;13.90;99.90
34279;DHT22;20538;51.528;9.942;2023-04-28T11:06:30;13.70;99.90
34279;DHT22;20538;51.528;9.942;2023-04-28T11:08:59;13.50;99.90
34279;DHT22;20538;51.528;9.942;2023-04-28T11:11:30;13.40;99.90
34279;DHT22;20538;51.528;9.942;2023-04-28T11:19:35;13.20;99.90
34279;DHT22;20538;51.528;9.942;2023-04-28T11:22:21;13.10;99.90
34279;DHT22;20538;51.528;9.942;2023-04-28T11:24:59;13.00;99.90
34279;DHT22;20538;51.528;9.942;2023-04-28T11:27:27;13.10;99.90
34279;DHT22;20538;51.528;9.942;2023-04-28T11:29:53;13.10;99.90
34279;DHT22;20538;51.528;9.942;2023-04-28T11:32:26;13.10;99.90
34279;DHT22;20538;51.528;9.942;2023-04-28T11:34:52;13.00;99.90
34279;DHT22;20538;51.528;9.942;2023-04-28T11:37:18;13.10;99.90
34279;DHT22;20538;51.528;9.942;2023-04-28T11:39:45;13.10;99.90
34279;DHT22;20538;51.528;9.942;2023-04-28T11:42:11;13.10;99.90
34279;DHT22;20538;51.528;9.942;2023-04-28T11:44:37;13.10;99.90
34279;DHT22;20538;51.528;9.942;2023-04-28T11:47:04;13.10;99.90
34279;DHT22;20538;51.528;9.942;2023-04-28T11:49:31;13.10;99.90
34279;DHT22;20538;51.528;9.942;2023-04-28T11:52:07;13.10;99.90
34279;DHT22;20538;51.528;9.942;2023-04-28T11:54:33;13.10;99.90
34279;DHT22;20538;51.528;9.942;2023-04-28T11:56:59;13.30;99.90
34279;DHT22;20538;51.528;9.942;2023-04-28T11:59:27;13.50;99.90
34279;DHT22;20538;51.528;9.942;2023-04-28T12:02:04;13.60;99.90
34279;DHT22;20538;51.528;9.942;2023-04-28T12:04:36;13.60;99.90
34279;DHT22;20538;51.528;9.942;2023-04-28T12:07:05;13.70;99.90
34279;DHT22;20538;51.528;9.942;2023-04-28T12:09:33;13.60;99.90
34279;DHT22;20538;51.528;9.942;2023-04-28T12:12:04;13.60;99.90
34279;DHT22;20538;51.528;9.942;2023-04-28T12:14:31;13.60;99.90
34279;DHT22;20538;51.528;9.942;2023-04-28T12:17:00;13.60;99.90
34279;DHT22;20538;51.528;9.942;2023-04-28T12:19:26;13.40;99.90
34279;DHT22;20538;51.528;9.942;2023-04-28T12:22:03;13.30;99.90
34279;DHT22;20538;51.528;9.942;2023-04-28T12:24:29;13.40;99.90
34279;DHT22;20538;51.528;9.942;2023-04-28T12:27:13;13.50;99.90
34279;DHT22;20538;51.528;9.942;2023-04-28T12:29:41;13.60;99.90
34279;DHT22;20538;51.528;9.942;2023-04-28T12:32:09;13.60;99.90
34279;DHT22;20538;51.528;9.942;2023-04-28T12:34:36;13.60;99.90
34279;DHT22;20538;51.528;9.942;2023-04-28T12:37:02;13.70;99.90
34279;DHT22;20538;51.528;9.942;2023-04-28T12:39:34;13.70;99.90
34279;DHT22;20538;51.528;9.942;2023-04-28T12:42:01;13.70;99.90
34279;DHT22;20538;51.528;9.942;2023-04-28T12:44:36;13.90;99.90
34279;DHT22;20538;51.528;9.942;2023-04-28T12:47:07;14.40;99.90
34279;DHT22;20538;51.528;9.942;2023-04-28T12:49:36;14.60;99.90
34279;DHT22;20538;51.528;9.942;2023-04-28T12:52:03;15.00;99.90
34279;DHT22;20538;51.528;9.942;2023-04-28T12:54:29;15.00;99.90
34279;DHT22;20538;51.528;9.942;2023-04-28T12:56:55;15.10;99.90
34279;DHT22;20538;51.528;9.942;2023-04-28T12:59:21;15.10;99.90
34279;DHT22;20538;51.528;9.942;2023-04-28T13:01:48;15.30;99.90
34279;DHT22;20538;51.528;9.942;2023-04-28T13:04:13;15.30;99.90
34279;DHT22;20538;51.528;9.942;2023-04-28T13:06:39;15.40;99.90
34279;DHT22;20538;51.528;9.942;2023-04-28T13:09:11;15.20;99.90
34279;DHT22;20538;51.528;9.942;2023-04-28T13:11:37;15.40;99.90
34279;DHT22;20538;51.528;9.942;2023-04-28T13:14:03;15.70;99.90
34279;DHT22;20538;51.528;9.942;2023-04-28T13:16:29;15.90;99.90
34279;DHT22;20538;51.528;9.942;2023-04-28T13:18:55;15.90;99.90
34279;DHT22;20538;51.528;9.942;2023-04-28T13:21:25;15.90;99.90
34279;DHT22;20538;51.528;9.942;2023-04-28T13:23:56;15.80;99.90
34279;DHT22;20538;51.528;9.942;2023-04-28T13:26:22;15.80;99.90
34279;DHT22;20538;51.528;9.942;2023-04-28T13:28:51;16.00;99.90
34279;DHT22;20538;51.528;9.942;2023-04-28T13:31:17;15.70;99.90
34279;DHT22;20538;51.528;9.942;2023-04-28T13:33:43;15.70;99.90
34279;DHT22;20538;51.528;9.942;2023-04-28T13:36:09;15.70;99.90
34279;DHT22;20538;51.528;9.942;2023-04-28T13:38:35;15.90;99.90
34279;DHT22;20538;51.528;9.942;2023-04-28T13:41:01;15.90;99.90
34279;DHT22;20538;51.528;9.942;2023-04-28T13:43:27;15.80;99.90
34279;DHT22;20538;51.528;9.942;2023-04-28T13:45:53;15.60;99.90
34279;DHT22;20538;51.528;9.942;2023-04-28T13:48:19;15.60;99.90
34279;DHT22;20538;51.528;9.942;2023-04-28T13:50:45;15.50;99.90
34279;DHT22;20538;51.528;9.942;2023-04-28T13:53:11;15.30;99.90
34279;DHT22;20538;51.528;9.942;2023-04-28T13:55:37;15.20;99.90
34279;DHT22;20538;51.528;9.942;2023-04-28T13:58:03;15.30;99.90
34279;DHT22;20538;51.528;9.942;2023-04-28T14:00:31;15.10;99.90
34279;DHT22;20538;51.528;9.942;2023-04-28T14:02:58;14.90;99.90
34279;DHT22;20538;51.528;9.942;2023-04-28T14:05:25;14.90;99.90
34279;DHT22;20538;51.528;9.942;2023-04-28T14:07:54;14.90;99.90
34279;DHT22;20538;51.528;9.942;2023-04-28T14:10:20;14.80;99.90
34279;DHT22;20538;51.528;9.942;2023-04-28T14:12:47;14.80;99.90
34279;DHT22;20538;51.528;9.942;2023-04-28T14:15:12;14.70;99.90
34279;DHT22;20538;51.528;9.942;2023-04-28T14:17:38;14.80;99.90
34279;DHT22;20538;51.528;9.942;2023-04-28T14:20:04;14.80;99.90
34279;DHT22;20538;51.528;9.942;2023-04-28T14:22:31;14.90;99.90
34279;DHT22;20538;51.528;9.942;2023-04-28T14:24:56;14.90;99.90
34279;DHT22;20538;51.528;9.942;2023-04-28T14:27:22;15.10;99.90
34279;DHT22;20538;51.528;9.942;2023-04-28T14:29:48;15.20;99.90
34279;DHT22;20538;51.528;9.942;2023-04-28T14:32:14;15.20;99.90
34279;DHT22;20538;51.528;9.942;2023-04-28T14:34:47;15.20;99.90
34279;DHT22;20538;51.528;9.942;2023-04-28T14:37:14;15.10;99.90
34279;DHT22;20538;51.528;9.942;2023-04-28T14:39:41;14.90;99.90
34279;DHT22;20538;51.528;9.942;2023-04-28T14:42:07;15.00;99.90
34279;DHT22;20538;51.528;9.942;2023-04-28T14:44:33;15.00;99.90
34279;DHT22;20538;51.528;9.942;2023-04-28T14:47:00;15.00;99.90
34279;DHT22;20538;51.528;9.942;2023-04-28T14:49:26;14.80;99.90
34279;DHT22;20538;51.528;9.942;2023-04-28T14:51:52;14.70;99.90
34279;DHT22;20538;51.528;9.942;2023-04-28T14:54:19;14.60;99.90
34279;DHT22;20538;51.528;9.942;2023-04-28T14:56:47;14.60;99.90
34279;DHT22;20538;51.528;9.942;2023-04-28T14:59:13;14.70;99.90
34279;DHT22;20538;51.528;9.942;2023-04-28T15:01:38;14.90;99.90
34279;DHT22;20538;51.528;9.942;2023-04-28T15:04:04;15.00;99.90
34279;DHT22;20538;51.528;9.942;2023-04-28T15:06:30;15.10;99.90
34279;DHT22;20538;51.528;9.942;2023-04-28T15:08:57;15.20;99.90
34279;DHT22;20538;51.528;9.942;2023-04-28T15:11:22;15.20;99.90
34279;DHT22;20538;51.528;9.942;2023-04-28T15:13:48;15.30;99.90
34279;DHT22;20538;51.528;9.942;2023-04-28T15:16:14;15.30;99.90
34279;DHT22;20538;51.528;9.942;2023-04-28T15:18:40;15.30;99.90
34279;DHT22;20538;51.528;9.942;2023-04-28T15:21:06;15.50;99.90
34279;DHT22;20538;51.528;9.942;2023-04-28T15:23:32;15.50;99.90
34279;DHT22;20538;51.528;9.942;2023-04-28T15:25:58;15.60;99.90
34279;DHT22;20538;51.528;9.942;2023-04-28T15:28:24;15.50;99.90
34279;DHT22;20538;51.528;9.942;2023-04-28T15:30:50;15.60;99.90
34279;DHT22;20538;51.528;9.942;2023-04-28T15:33:15;15.20;99.90
34279;DHT22;20538;51.528;9.942;2023-04-28T15:35:42;15.10;99.90
34279;DHT22;20538;51.528;9.942;2023-04-28T15:38:08;15.00;99.90
34279;DHT22;20538;51.528;9.942;2023-04-28T15:40:38;15.00;99.90
34279;DHT22;20538;51.528;9.942;2023-04-28T15:43:07;15.00;99.90
34279;DHT22;20538;51.528;9.942;2023-04-28T15:45:34;15.10;99.90
34279;DHT22;20538;51.528;9.942;2023-04-28T15:47:59;15.10;99.90
34279;DHT22;20538;51.528;9.942;2023-04-28T15:50:26;15.10;99.90
34279;DHT22;20538;51.528;9.942;2023-04-28T15:52:52;15.00;99.90
34279;DHT22;20538;51.528;9.942;2023-04-28T15:55:19;15.00;99.90
34279;DHT22;20538;51.528;9.942;2023-04-28T15:57:46;14.90;99.90
34279;DHT22;20538;51.528;9.942;2023-04-28T16:00:13;14.80;99.90
34279;DHT22;20538;51.528;9.942;2023-04-28T16:02:40;14.80;99.90
34279;DHT22;20538;51.528;9.942;2023-04-28T16:05:08;14.70;99.90